Time;durP1;ratioP1;P1;durP2;ratioP2;P2;SDS_P1;SDS_P2;PMS_P1;PMS_P2;Temp;Humidity;BMP_temperature;BMP_pressure;BME280_temperature;BME280_humidity;BME280_pressure;Samples;Min_cycle;Max_cycle;Signal;HPM_P1;HPM_P2
2021/06/13 00:00:17;;;;;;;7.18;4.40;;;20.30;61.30;;;;;;5047095;28;20313;-63
2021/06/13 00:02:43;;;;;;;8.82;5.10;;;20.30;61.30;;;;;;5028896;28;20104;-63
2021/06/13 00:05:10;;;;;;;6.70;5.20;;;20.30;61.00;;;;;;5046589;28;20033;-64
2021/06/13 00:07:36;;;;;;;9.02;5.10;;;20.10;61.00;;;;;;5029169;28;20034;-63
2021/06/13 00:10:02;;;;;;;6.00;4.78;;;20.20;60.90;;;;;;5045708;28;20213;-63
2021/06/13 00:12:27;;;;;;;6.20;4.68;;;20.10;61.10;;;;;;5046100;28;20029;-63
2021/06/13 00:14:53;;;;;;;5.47;4.53;;;20.20;60.90;;;;;;5046595;28;20060;-63
2021/06/13 00:17:18;;;;;;;6.93;5.13;;;20.10;61.60;;;;;;5046527;28;20373;-63
2021/06/13 00:19:44;;;;;;;6.88;4.90;;;20.20;60.90;;;;;;5046023;28;20079;-63
2021/06/13 00:22:10;;;;;;;5.60;4.90;;;20.10;60.70;;;;;;5045962;28;20404;-63
2021/06/13 00:24:36;;;;;;;7.72;4.70;;;20.10;61.40;;;;;;5046018;28;20037;-63
2021/06/13 00:27:02;;;;;;;11.65;4.43;;;20.10;61.00;;;;;;5046657;28;20025;-63
2021/06/13 00:29:27;;;;;;;8.48;5.20;;;20.10;60.90;;;;;;5046309;28;20057;-63
2021/06/13 00:31:53;;;;;;;5.88;4.82;;;20.10;60.90;;;;;;5044999;28;20330;-63
2021/06/13 00:34:18;;;;;;;7.93;5.38;;;20.10;61.10;;;;;;5045820;28;20370;-63
2021/06/13 00:36:44;;;;;;;5.35;4.50;;;20.00;61.20;;;;;;5045661;28;20030;-63
2021/06/13 00:39:10;;;;;;;8.93;5.18;;;19.90;61.00;;;;;;5046055;28;20065;-63
2021/06/13 00:41:35;;;;;;;7.53;5.80;;;19.90;61.60;;;;;;5046063;28;20029;-63
2021/06/13 00:44:01;;;;;;;5.95;4.97;;;19.90;61.60;;;;;;5046266;28;20037;-63
2021/06/13 00:46:26;;;;;;;7.72;5.47;;;20.00;61.80;;;;;;5045808;28;20099;-63
2021/06/13 00:48:52;;;;;;;8.95;6.10;;;20.00;61.50;;;;;;5045484;28;20049;-63
2021/06/13 00:51:17;;;;;;;10.80;5.72;;;20.10;61.20;;;;;;5046218;28;20056;-63
2021/06/13 00:53:44;;;;;;;6.72;5.35;;;20.00;61.10;;;;;;5045384;28;20344;-63
2021/06/13 00:56:10;;;;;;;8.02;5.60;;;20.10;60.80;;;;;;5028272;28;20030;-63
2021/06/13 00:58:36;;;;;;;7.85;5.38;;;19.90;61.50;;;;;;5011665;28;20033;-63
2021/06/13 01:01:01;;;;;;;7.22;5.18;;;19.80;61.50;;;;;;5011354;28;20029;-63
2021/06/13 01:03:27;;;;;;;8.55;5.80;;;19.80;62.40;;;;;;5011575;28;20026;-63
2021/06/13 01:05:53;;;;;;;8.52;5.25;;;19.90;62.40;;;;;;5045887;28;20064;-63
2021/06/13 01:08:49;;;;;;;8.52;5.43;;;19.90;62.20;;;;;;5045561;28;20056;-63
2021/06/13 01:11:45;;;;;;;7.22;5.63;;;19.90;62.30;;;;;;5044553;28;20044;-63
2021/06/13 01:14:14;;;;;;;8.60;5.45;;;19.90;62.80;;;;;;5045041;28;20037;-63
2021/06/13 01:17:00;;;;;;;8.18;5.55;;;19.90;62.70;;;;;;5044899;28;20044;-62
2021/06/13 01:19:43;;;;;;;8.93;5.65;;;19.70;62.90;;;;;;5045181;28;20095;-63
2021/06/13 01:22:29;;;;;;;7.45;5.60;;;19.80;62.60;;;;;;5028615;28;20037;-63
2021/06/13 01:25:00;;;;;;;8.57;5.45;;;20.00;62.60;;;;;;5012780;28;20095;-63
2021/06/13 01:27:51;;;;;;;9.13;5.93;;;19.90;62.10;;;;;;5044989;28;20021;-63
2021/06/13 01:30:17;;;;;;;7.28;5.40;;;19.80;62.30;;;;;;5045443;28;20025;-63
2021/06/13 01:32:42;;;;;;;9.13;5.38;;;19.80;61.90;;;;;;5044644;28;20029;-63
2021/06/13 01:35:14;;;;;;;7.80;6.05;;;19.80;62.10;;;;;;5027655;28;20041;-63
2021/06/13 01:37:42;;;;;;;7.65;5.82;;;19.80;62.10;;;;;;5027303;28;20083;-63
2021/06/13 01:40:10;;;;;;;11.80;6.65;;;19.80;62.40;;;;;;5010648;28;20037;-63
2021/06/13 01:42:36;;;;;;;8.77;6.50;;;19.70;62.50;;;;;;5044454;28;20037;-63
2021/06/13 01:45:04;;;;;;;8.38;6.38;;;19.70;62.70;;;;;;5027185;28;20091;-63
2021/06/13 01:47:30;;;;;;;10.27;6.22;;;19.80;61.90;;;;;;5044455;28;20084;-63
2021/06/13 01:49:56;;;;;;;10.10;6.18;;;19.70;62.10;;;;;;5010802;28;20030;-63
2021/06/13 01:52:21;;;;;;;9.05;5.90;;;19.80;62.80;;;;;;5044447;28;20034;-63
2021/06/13 01:54:47;;;;;;;9.02;5.75;;;19.70;62.60;;;;;;5010443;28;20097;-63
2021/06/13 01:57:12;;;;;;;8.68;5.70;;;19.50;62.50;;;;;;5027206;28;20037;-62
2021/06/13 01:59:41;;;;;;;10.65;6.13;;;19.60;61.90;;;;;;5027164;28;20057;-63
2021/06/13 02:02:07;;;;;;;9.70;5.95;;;19.60;62.60;;;;;;5010559;28;20037;-63
2021/06/13 02:04:33;;;;;;;9.80;6.38;;;19.60;62.50;;;;;;5026766;28;20261;-63
2021/06/13 02:06:59;;;;;;;9.80;5.63;;;19.70;62.20;;;;;;5010569;28;20096;-63
2021/06/13 02:09:25;;;;;;;10.55;6.47;;;19.60;62.30;;;;;;4994351;28;20024;-63
2021/06/13 02:11:51;;;;;;;10.75;6.40;;;19.50;63.30;;;;;;5044416;28;20136;-63
2021/06/13 02:14:19;;;;;;;8.07;5.97;;;19.50;63.00;;;;;;5026180;28;20248;-63
2021/06/13 02:16:44;;;;;;;10.05;6.20;;;19.50;62.30;;;;;;5026636;28;20088;-63
2021/06/13 02:19:10;;;;;;;9.98;6.53;;;19.50;62.60;;;;;;5010334;28;20036;-63
2021/06/13 02:21:36;;;;;;;12.73;6.40;;;19.20;62.50;;;;;;5025810;28;20033;-63
2021/06/13 02:24:01;;;;;;;8.90;6.18;;;19.20;62.80;;;;;;5027025;28;20037;-63
2021/06/13 02:26:27;;;;;;;8.45;6.30;;;19.30;62.10;;;;;;5026653;28;20033;-63
2021/06/13 02:28:54;;;;;;;11.63;6.38;;;19.30;62.90;;;;;;5044013;28;20119;-63
2021/06/13 02:31:24;;;;;;;9.55;6.05;;;19.30;61.90;;;;;;5026192;28;20046;-63
2021/06/13 02:33:49;;;;;;;11.77;6.07;;;19.30;62.40;;;;;;5043919;28;20030;-62
2021/06/13 02:36:15;;;;;;;10.82;6.07;;;19.30;61.50;;;;;;5027168;28;20084;-63
2021/06/13 02:38:41;;;;;;;9.20;6.38;;;19.30;61.30;;;;;;5026256;28;20132;-64
2021/06/13 02:41:06;;;;;;;9.48;5.55;;;19.10;62.00;;;;;;5025778;28;20037;-63
2021/06/13 02:43:32;;;;;;;9.18;5.88;;;19.20;62.60;;;;;;5043743;28;20093;-63
2021/06/13 02:45:58;;;;;;;12.38;6.38;;;19.10;62.80;;;;;;5043732;28;20060;-63
2021/06/13 02:48:23;;;;;;;10.93;6.32;;;19.20;61.90;;;;;;5044024;28;20029;-63
2021/06/13 02:50:51;;;;;;;9.52;5.93;;;19.20;62.40;;;;;;5044203;28;20029;-63
2021/06/13 02:53:19;;;;;;;12.85;6.50;;;19.30;62.30;;;;;;5026372;28;20097;-63
2021/06/13 02:56:09;;;;;;;9.57;6.15;;;19.30;61.90;;;;;;5044880;28;20071;-63
2021/06/13 02:58:46;;;;;;;8.98;5.40;;;19.20;61.80;;;;;;5028091;28;20360;-63
2021/06/13 03:01:14;;;;;;;7.10;5.35;;;19.10;61.60;;;;;;5029945;28;20084;-63
2021/06/13 03:03:39;;;;;;;8.00;6.35;;;19.20;61.80;;;;;;5030070;28;20042;-63
2021/06/13 03:06:19;;;;;;;8.90;6.22;;;19.00;61.50;;;;;;5030776;28;20029;-63
2021/06/13 03:08:49;;;;;;;13.65;6.13;;;19.00;61.90;;;;;;5048109;28;20076;-63
2021/06/13 03:11:15;;;;;;;10.60;6.10;;;19.10;62.00;;;;;;5029713;28;20036;-63
2021/06/13 03:13:41;;;;;;;9.75;6.15;;;19.20;61.40;;;;;;5046766;28;20053;-63
2021/06/13 03:16:06;;;;;;;11.50;6.20;;;19.00;62.40;;;;;;5013368;28;20030;-63
2021/06/13 03:18:32;;;;;;;9.73;6.30;;;19.00;61.80;;;;;;5029636;28;20026;-63
2021/06/13 03:20:58;;;;;;;11.27;6.28;;;19.10;61.50;;;;;;5030344;28;20367;-63
2021/06/13 03:23:25;;;;;;;11.38;6.15;;;19.00;62.30;;;;;;5013671;28;20074;-63
2021/06/13 03:25:51;;;;;;;11.52;6.50;;;18.90;62.10;;;;;;5047001;28;20096;-63
2021/06/13 03:28:18;;;;;;;9.77;5.95;;;18.90;62.40;;;;;;5029517;28;20046;-63
2021/06/13 03:30:44;;;;;;;8.63;6.40;;;18.90;62.70;;;;;;5029470;28;20097;-63
2021/06/13 03:33:09;;;;;;;10.48;6.40;;;18.90;62.30;;;;;;5029781;28;20076;-63
2021/06/13 03:35:35;;;;;;;10.48;6.50;;;18.80;62.60;;;;;;5029825;28;20097;-63
2021/06/13 03:38:01;;;;;;;9.40;6.30;;;18.80;62.70;;;;;;5047038;28;20280;-63
2021/06/13 03:40:26;;;;;;;8.18;6.50;;;18.80;62.90;;;;;;5012949;28;20344;-63
2021/06/13 03:42:52;;;;;;;11.25;6.32;;;18.80;62.50;;;;;;5046851;28;20033;-63
2021/06/13 03:45:20;;;;;;;9.68;6.68;;;18.80;63.20;;;;;;5013383;28;20033;-63
2021/06/13 03:47:45;;;;;;;9.02;6.85;;;18.70;63.00;;;;;;5013498;28;20049;-63
2021/06/13 03:50:11;;;;;;;9.57;6.45;;;18.50;63.80;;;;;;5046941;28;20025;-63
2021/06/13 03:52:38;;;;;;;9.95;6.90;;;18.50;63.90;;;;;;5013107;28;20029;-62
2021/06/13 03:55:04;;;;;;;13.32;6.93;;;18.60;64.10;;;;;;5046524;28;20033;-63
2021/06/13 03:57:30;;;;;;;12.70;6.78;;;18.70;63.30;;;;;;5046711;28;20025;-63
2021/06/13 03:59:56;;;;;;;14.00;7.80;;;18.40;63.30;;;;;;5030007;28;20124;-63
2021/06/13 04:02:21;;;;;;;12.95;6.53;;;18.40;63.30;;;;;;5029310;28;20041;-63
2021/06/13 04:04:51;;;;;;;10.25;6.40;;;18.40;63.60;;;;;;5046749;28;20037;-63
2021/06/13 04:07:18;;;;;;;13.95;6.60;;;18.50;64.40;;;;;;5029102;28;20033;-63
2021/06/13 04:09:43;;;;;;;9.95;6.65;;;18.40;64.20;;;;;;5028733;28;20041;-63
2021/06/13 04:12:13;;;;;;;10.40;6.57;;;18.30;64.30;;;;;;5013198;28;20033;-62
2021/06/13 04:14:39;;;;;;;9.68;7.07;;;18.30;64.20;;;;;;5013177;28;20217;-63
2021/06/13 04:17:04;;;;;;;12.25;6.85;;;18.30;64.00;;;;;;5045502;28;20101;-63
2021/06/13 04:19:30;;;;;;;11.70;7.20;;;18.30;64.20;;;;;;5028653;28;20194;-63
2021/06/13 04:21:56;;;;;;;12.90;7.30;;;18.40;64.40;;;;;;5045799;28;20034;-63
2021/06/13 04:24:21;;;;;;;12.38;7.03;;;18.30;64.70;;;;;;5028754;28;20032;-63
2021/06/13 04:26:47;;;;;;;12.05;7.05;;;18.30;64.80;;;;;;5012768;28;20029;-63
2021/06/13 04:29:13;;;;;;;10.40;7.32;;;18.40;64.70;;;;;;5046366;28;20044;-63
2021/06/13 04:31:39;;;;;;;10.65;7.10;;;18.30;64.30;;;;;;5045949;28;20053;-63
2021/06/13 04:34:04;;;;;;;8.60;6.70;;;18.40;64.70;;;;;;5045974;28;20034;-63
2021/06/13 04:36:30;;;;;;;11.57;6.78;;;18.40;64.50;;;;;;5045969;28;20053;-63
2021/06/13 04:38:55;;;;;;;10.57;7.15;;;18.40;64.80;;;;;;5046028;28;20049;-63
2021/06/13 04:41:21;;;;;;;11.68;7.20;;;18.40;64.70;;;;;;5028510;28;20048;-63
2021/06/13 04:43:47;;;;;;;10.13;7.28;;;18.50;65.00;;;;;;5045900;28;20084;-63
2021/06/13 04:46:14;;;;;;;11.75;6.78;;;18.50;64.60;;;;;;5045591;28;20045;-63
2021/06/13 04:48:40;;;;;;;12.57;6.95;;;18.40;64.80;;;;;;5028129;28;20061;-63
2021/06/13 04:51:07;;;;;;;14.50;7.13;;;18.50;64.30;;;;;;5046195;28;20029;-65
2021/06/13 04:53:47;;;;;;;13.15;6.90;;;18.40;64.50;;;;;;5045901;28;20049;-63
2021/06/13 04:56:33;;;;;;;10.45;6.93;;;18.50;65.00;;;;;;5028693;28;20033;-62
2021/06/13 04:58:59;;;;;;;11.25;6.75;;;18.40;64.80;;;;;;5045919;28;20221;-62
2021/06/13 05:01:25;;;;;;;11.15;6.90;;;18.30;64.80;;;;;;5027873;28;20079;-62
2021/06/13 05:03:52;;;;;;;12.43;7.03;;;18.40;65.20;;;;;;5027650;28;20272;-62
2021/06/13 05:06:17;;;;;;;9.25;6.53;;;18.60;65.20;;;;;;5045560;28;20057;-62
2021/06/13 05:08:43;;;;;;;10.85;7.15;;;18.50;65.20;;;;;;5027509;28;20036;-62
2021/06/13 05:11:09;;;;;;;11.02;7.00;;;18.60;64.80;;;;;;5045664;28;20032;-62
2021/06/13 05:13:34;;;;;;;9.52;6.60;;;18.50;65.00;;;;;;5045002;28;20037;-62
2021/06/13 05:16:00;;;;;;;10.73;6.60;;;18.50;64.90;;;;;;5044983;28;20087;-62
2021/06/13 05:18:25;;;;;;;11.23;7.13;;;18.60;65.00;;;;;;5044391;28;20277;-62
2021/06/13 05:20:54;;;;;;;13.77;6.82;;;18.50;65.00;;;;;;5045334;28;20092;-62
2021/06/13 05:23:20;;;;;;;9.57;6.95;;;18.70;64.60;;;;;;5045319;28;20308;-63
2021/06/13 05:25:46;;;;;;;8.18;6.10;;;18.60;64.90;;;;;;5027196;28;20290;-63
2021/06/13 05:28:12;;;;;;;10.90;6.50;;;18.70;64.30;;;;;;5045078;28;20029;-64
2021/06/13 05:30:39;;;;;;;11.05;6.45;;;18.80;63.90;;;;;;5044682;28;20029;-62
2021/06/13 05:33:05;;;;;;;10.07;5.80;;;18.80;63.70;;;;;;5045400;28;20021;-62
2021/06/13 05:35:31;;;;;;;8.35;5.40;;;18.80;63.00;;;;;;5010793;28;20092;-62
2021/06/13 05:37:57;;;;;;;12.45;4.55;;;18.80;62.30;;;;;;5044594;28;20403;-62
2021/06/13 05:40:22;;;;;;;9.20;4.82;;;18.80;61.90;;;;;;5044128;28;20065;-62
2021/06/13 05:42:48;;;;;;;10.23;4.28;;;18.80;60.80;;;;;;5044537;28;20225;-62
2021/06/13 05:45:14;;;;;;;7.95;4.38;;;18.80;61.30;;;;;;5045369;28;20048;-63
2021/06/13 05:47:40;;;;;;;8.85;4.07;;;18.80;61.10;;;;;;5044920;28;20029;-63
2021/06/13 05:50:08;;;;;;;9.32;4.32;;;19.00;60.50;;;;;;5044657;28;20033;-63
2021/06/13 05:52:34;;;;;;;8.23;4.43;;;19.00;59.70;;;;;;5044472;28;20096;-63
2021/06/13 05:54:59;;;;;;;7.68;4.20;;;18.90;60.20;;;;;;5044212;28;20033;-65
2021/06/13 05:57:30;;;;;;;7.68;3.67;;;19.00;60.40;;;;;;5044409;28;20021;-63
2021/06/13 05:59:56;;;;;;;9.25;4.05;;;18.90;60.40;;;;;;5044687;28;20123;-65
2021/06/13 06:02:22;;;;;;;8.73;3.88;;;18.90;60.30;;;;;;5044188;28;20079;-65
2021/06/13 06:04:48;;;;;;;5.97;3.40;;;18.90;60.30;;;;;;5044085;28;20037;-65
2021/06/13 06:07:13;;;;;;;9.57;4.32;;;19.00;60.60;;;;;;5044327;28;20040;-64
2021/06/13 06:09:39;;;;;;;8.82;3.63;;;19.10;60.70;;;;;;5044255;28;20243;-64
2021/06/13 06:12:05;;;;;;;8.70;3.70;;;18.90;58.80;;;;;;5044718;28;20029;-66
2021/06/13 06:14:31;;;;;;;6.45;3.53;;;18.90;59.50;;;;;;5044365;28;20212;-64
2021/06/13 06:16:57;;;;;;;9.27;3.95;;;19.00;58.10;;;;;;5044164;28;20032;-65
2021/06/13 06:19:22;;;;;;;7.80;3.80;;;19.10;58.40;;;;;;5026725;28;20039;-66
2021/06/13 06:21:48;;;;;;;9.73;4.28;;;19.10;58.50;;;;;;5043920;28;20209;-64
2021/06/13 06:24:13;;;;;;;10.73;3.90;;;19.00;57.10;;;;;;5044518;28;20060;-64
2021/06/13 06:26:39;;;;;;;12.90;3.88;;;19.00;59.00;;;;;;5044171;28;20329;-64
2021/06/13 06:29:04;;;;;;;11.43;3.80;;;19.10;57.90;;;;;;5026242;28;20068;-64
2021/06/13 06:31:30;;;;;;;9.23;3.63;;;19.10;56.70;;;;;;5043077;28;20037;-64
2021/06/13 06:33:56;;;;;;;8.02;4.15;;;19.10;56.90;;;;;;5043832;28;20324;-65
2021/06/13 06:36:21;;;;;;;8.90;3.88;;;19.10;57.40;;;;;;5043833;28;20029;-64
2021/06/13 06:38:47;;;;;;;6.93;4.03;;;19.20;57.70;;;;;;5026428;28;20048;-64
2021/06/13 06:41:12;;;;;;;7.72;4.30;;;19.30;57.60;;;;;;5043620;28;20046;-67
2021/06/13 06:43:38;;;;;;;7.00;3.80;;;19.30;57.80;;;;;;5044077;28;20197;-64
2021/06/13 06:46:04;;;;;;;10.15;4.03;;;19.40;58.90;;;;;;5043406;28;20042;-64
2021/06/13 06:48:30;;;;;;;14.82;4.43;;;19.50;58.70;;;;;;5044165;28;20313;-64
2021/06/13 06:50:55;;;;;;;7.90;3.70;;;19.40;58.70;;;;;;5044212;28;20029;-64
2021/06/13 06:53:21;;;;;;;6.65;4.13;;;19.60;58.90;;;;;;5043812;28;20037;-64
2021/06/13 06:55:46;;;;;;;8.00;4.40;;;19.60;57.00;;;;;;5043515;28;20093;-63
2021/06/13 06:58:12;;;;;;;8.13;4.10;;;19.70;58.40;;;;;;5043322;28;20355;-64
2021/06/13 07:00:37;;;;;;;9.23;4.25;;;19.80;57.80;;;;;;5026015;28;20033;-64
2021/06/13 07:03:05;;;;;;;9.40;5.00;;;19.80;58.40;;;;;;5044380;28;20293;-63
2021/06/13 07:05:31;;;;;;;7.95;4.25;;;19.80;57.60;;;;;;5043741;28;20029;-64
2021/06/13 07:07:57;;;;;;;8.82;3.97;;;19.80;57.90;;;;;;5043277;28;20030;-64
2021/06/13 07:10:22;;;;;;;7.60;3.95;;;19.80;56.90;;;;;;5043552;28;20260;-64
2021/06/13 07:12:48;;;;;;;11.38;4.57;;;19.80;57.00;;;;;;5025668;28;20030;-64
2021/06/13 07:15:14;;;;;;;8.38;4.05;;;19.80;55.50;;;;;;5043939;28;20041;-64
2021/06/13 07:17:41;;;;;;;8.13;3.83;;;19.90;56.60;;;;;;5043716;28;20049;-64
2021/06/13 07:20:07;;;;;;;8.40;4.85;;;20.00;56.20;;;;;;5043094;28;20092;-64
2021/06/13 07:22:33;;;;;;;8.85;4.47;;;20.10;55.70;;;;;;5025754;28;20045;-64
2021/06/13 07:25:00;;;;;;;8.93;4.63;;;20.10;56.90;;;;;;5043201;28;20037;-64
2021/06/13 07:27:27;;;;;;;9.63;4.22;;;20.10;55.30;;;;;;5043043;28;20029;-64
2021/06/13 07:29:52;;;;;;;7.10;4.60;;;20.20;56.90;;;;;;5043852;28;20067;-64
2021/06/13 07:32:18;;;;;;;9.07;4.80;;;20.30;55.00;;;;;;5043512;28;20061;-64
2021/06/13 07:34:43;;;;;;;8.18;4.60;;;20.30;55.40;;;;;;5043428;28;20029;-64
2021/06/13 07:37:09;;;;;;;8.50;4.78;;;20.40;54.60;;;;;;5043143;28;20025;-64
2021/06/13 07:39:35;;;;;;;11.30;4.78;;;20.40;54.40;;;;;;5043043;28;20045;-64
2021/06/13 07:42:02;;;;;;;10.18;4.40;;;20.60;54.30;;;;;;5045049;28;20097;-64
2021/06/13 07:44:27;;;;;;;7.57;4.60;;;20.70;56.10;;;;;;5047182;28;20080;-64
2021/06/13 07:46:54;;;;;;;9.98;4.82;;;20.80;54.80;;;;;;5046688;28;20049;-64
2021/06/13 07:49:19;;;;;;;7.88;4.80;;;20.90;55.20;;;;;;5046698;28;20034;-64
2021/06/13 07:51:45;;;;;;;11.73;5.20;;;21.10;56.00;;;;;;5046555;28;20035;-64
2021/06/13 07:54:10;;;;;;;6.88;4.40;;;21.30;53.00;;;;;;5029315;28;20029;-64
2021/06/13 07:56:36;;;;;;;12.40;4.85;;;21.30;54.40;;;;;;5046994;28;20041;-64
2021/06/13 07:59:02;;;;;;;12.18;4.55;;;21.50;53.60;;;;;;5046809;28;20044;-64
2021/06/13 08:01:27;;;;;;;8.40;4.43;;;21.60;52.70;;;;;;5046670;28;20391;-64
2021/06/13 08:03:54;;;;;;;10.35;4.32;;;21.70;52.90;;;;;;5046411;28;20359;-64
2021/06/13 08:06:19;;;;;;;7.57;4.20;;;21.80;53.60;;;;;;5047043;28;20033;-64
2021/06/13 08:08:45;;;;;;;7.63;4.35;;;21.80;50.90;;;;;;5046479;28;20038;-64
2021/06/13 08:11:11;;;;;;;8.95;4.40;;;22.00;52.50;;;;;;5046825;28;20030;-64
2021/06/13 08:13:36;;;;;;;13.65;6.57;;;22.20;53.90;;;;;;5046284;28;20305;-64
2021/06/13 08:16:02;;;;;;;37.55;12.48;;;22.30;52.00;;;;;;5046528;28;20026;-64
2021/06/13 08:18:28;;;;;;;8.40;4.05;;;22.30;51.70;;;;;;5046361;28;20248;-64
2021/06/13 08:20:54;;;;;;;9.63;4.72;;;22.50;51.80;;;;;;5047094;28;20033;-64
2021/06/13 08:23:20;;;;;;;10.82;4.90;;;22.60;52.10;;;;;;5046457;28;20049;-64
2021/06/13 08:25:45;;;;;;;8.02;4.30;;;22.80;52.20;;;;;;5045940;28;20087;-64
2021/06/13 08:28:11;;;;;;;7.57;4.40;;;22.80;51.20;;;;;;5046264;28;20030;-64
2021/06/13 08:30:37;;;;;;;9.60;4.38;;;22.80;51.40;;;;;;5028493;28;20232;-65
2021/06/13 08:33:02;;;;;;;7.93;4.32;;;23.00;52.70;;;;;;5012357;28;20025;-64
2021/06/13 08:35:28;;;;;;;10.35;4.65;;;23.00;52.10;;;;;;5046099;28;20347;-64
2021/06/13 08:37:54;;;;;;;7.32;4.30;;;22.80;51.40;;;;;;5046017;28;20037;-64
2021/06/13 08:40:20;;;;;;;8.38;4.35;;;22.90;51.40;;;;;;5045396;28;20233;-64
2021/06/13 08:42:45;;;;;;;9.90;4.15;;;23.00;50.80;;;;;;5045704;28;20081;-64
2021/06/13 08:45:12;;;;;;;7.63;4.22;;;23.10;52.30;;;;;;5046055;28;20033;-64
2021/06/13 08:47:38;;;;;;;8.23;4.25;;;23.20;51.00;;;;;;5028527;28;20084;-64
2021/06/13 08:50:05;;;;;;;7.57;3.80;;;23.10;49.80;;;;;;5045807;28;20033;-64
2021/06/13 08:52:31;;;;;;;7.20;4.10;;;23.10;48.60;;;;;;5045180;28;20093;-64
2021/06/13 08:54:59;;;;;;;6.78;3.60;;;23.20;50.60;;;;;;5027455;28;20032;-64
2021/06/13 08:57:25;;;;;;;5.75;3.63;;;23.30;49.80;;;;;;5045500;28;20120;-64
2021/06/13 08:59:50;;;;;;;8.75;3.72;;;23.20;48.60;;;;;;5045769;28;20391;-64
2021/06/13 09:02:16;;;;;;;8.18;3.38;;;23.30;49.60;;;;;;5045331;28;20029;-64
2021/06/13 09:04:42;;;;;;;6.38;3.80;;;23.40;49.40;;;;;;5043438;28;20041;-64
2021/06/13 09:07:29;;;;;;;6.57;3.47;;;23.40;47.90;;;;;;5027593;28;20065;-64
2021/06/13 09:09:55;;;;;;;5.65;2.92;;;23.40;49.50;;;;;;5045253;28;20037;-64
2021/06/13 09:12:21;;;;;;;5.15;3.10;;;23.40;45.60;;;;;;5045004;28;20221;-64
2021/06/13 09:14:49;;;;;;;7.63;4.10;;;23.30;45.50;;;;;;5045348;28;20245;-64
2021/06/13 09:17:29;;;;;;;10.27;4.28;;;23.20;46.80;;;;;;5045147;28;20029;-64
2021/06/13 09:20:19;;;;;;;7.78;3.72;;;23.30;48.00;;;;;;5044900;28;20050;-64
2021/06/13 09:23:09;;;;;;;5.97;3.30;;;23.30;46.70;;;;;;5045208;28;20033;-64
2021/06/13 09:25:34;;;;;;;7.07;3.40;;;23.50;47.20;;;;;;5045093;28;20329;-64
2021/06/13 09:28:10;;;;;;;8.02;3.70;;;23.50;46.20;;;;;;5044721;28;20040;-64
2021/06/13 09:30:37;;;;;;;6.75;3.17;;;23.70;46.60;;;;;;5044882;28;20037;-64
2021/06/13 09:33:13;;;;;;;5.45;3.33;;;23.70;45.60;;;;;;5045479;28;20021;-64
2021/06/13 09:35:39;;;;;;;7.53;3.70;;;23.70;46.40;;;;;;5045129;28;20044;-64
2021/06/13 09:38:16;;;;;;;8.98;3.25;;;23.80;46.10;;;;;;5044431;28;20074;-64
2021/06/13 09:40:44;;;;;;;6.65;3.10;;;23.80;47.60;;;;;;5044698;28;20041;-64
2021/06/13 09:43:49;;;;;;;7.30;3.30;;;23.90;48.40;;;;;;5044440;28;20128;-64
2021/06/13 09:46:19;;;;;;;9.63;3.67;;;23.90;45.90;;;;;;5027312;28;20061;-64
2021/06/13 09:48:53;;;;;;;6.67;3.33;;;24.00;45.30;;;;;;5027795;28;20041;-64
2021/06/13 09:51:24;;;;;;;5.25;3.20;;;23.90;46.40;;;;;;5027606;28;20097;-64
2021/06/13 09:53:53;;;;;;;6.55;3.05;;;24.00;44.00;;;;;;5044891;28;20037;-64
2021/06/13 09:56:21;;;;;;;10.27;4.38;;;23.80;45.70;;;;;;5044542;28;20045;-64
2021/06/13 09:59:07;;;;;;;6.28;2.92;;;23.80;45.40;;;;;;5026777;28;20350;-64
2021/06/13 10:01:40;;;;;;;6.25;3.00;;;23.80;45.10;;;;;;5044269;28;20021;-64
2021/06/13 10:04:25;;;;;;;8.23;3.35;;;23.90;44.80;;;;;;5027645;28;20036;-64
2021/06/13 10:06:52;;;;;;;5.18;2.92;;;24.10;44.20;;;;;;5043903;28;20038;-64
2021/06/13 10:09:19;;;;;;;4.70;2.60;;;24.20;46.90;;;;;;5044477;28;20111;-64
2021/06/13 10:11:45;;;;;;;5.13;2.28;;;24.30;45.70;;;;;;5044177;28;20060;-64
2021/06/13 10:14:16;;;;;;;3.60;2.33;;;24.30;42.30;;;;;;5044423;28;20376;-64
2021/06/13 10:16:52;;;;;;;5.65;2.47;;;24.40;44.40;;;;;;5044146;28;20037;-64
2021/06/13 10:19:22;;;;;;;6.90;2.53;;;24.50;43.90;;;;;;5026703;28;20148;-64
2021/06/13 10:21:57;;;;;;;5.83;2.33;;;24.60;43.70;;;;;;5043860;28;20034;-64
2021/06/13 10:24:34;;;;;;;5.63;2.63;;;24.70;43.50;;;;;;5026187;28;20302;-64
2021/06/13 10:27:01;;;;;;;9.30;2.25;;;24.60;43.10;;;;;;5044182;28;20070;-64
2021/06/13 10:29:29;;;;;;;4.20;2.00;;;24.70;42.00;;;;;;5044180;28;20034;-64
2021/06/13 10:31:56;;;;;;;4.72;2.35;;;24.70;41.40;;;;;;5043896;28;20248;-64
2021/06/13 10:34:21;;;;;;;4.78;2.53;;;24.80;43.10;;;;;;5043838;28;20093;-64
2021/06/13 10:36:47;;;;;;;4.53;2.13;;;24.80;41.90;;;;;;5043662;28;20040;-64
2021/06/13 10:39:15;;;;;;;7.43;2.55;;;24.90;42.90;;;;;;5043767;28;20104;-64
2021/06/13 10:41:41;;;;;;;4.75;2.10;;;25.00;42.50;;;;;;5026425;28;20033;-64
2021/06/13 10:44:13;;;;;;;4.85;2.55;;;25.00;42.90;;;;;;5043902;28;20040;-64
2021/06/13 10:46:40;;;;;;;7.72;3.00;;;25.00;41.10;;;;;;5025840;28;20034;-64
2021/06/13 10:49:09;;;;;;;3.55;1.90;;;24.80;41.10;;;;;;5025895;28;20040;-64
2021/06/13 10:51:44;;;;;;;7.18;2.10;;;25.00;42.40;;;;;;5026794;28;20030;-64
2021/06/13 10:54:25;;;;;;;4.70;2.10;;;25.10;40.30;;;;;;5044388;28;20026;-64
2021/06/13 10:57:00;;;;;;;5.78;1.98;;;25.10;40.70;;;;;;5044064;28;20033;-64
2021/06/13 10:59:31;;;;;;;7.05;1.90;;;25.10;38.40;;;;;;5043880;28;20336;-64
2021/06/13 11:02:08;;;;;;;5.07;1.98;;;25.10;40.70;;;;;;5025664;28;20037;-64
2021/06/13 11:04:46;;;;;;;5.93;2.10;;;25.30;41.50;;;;;;5043355;28;20044;-64
2021/06/13 11:07:35;;;;;;;4.10;1.90;;;25.30;41.00;;;;;;5043620;28;20049;-64
2021/06/13 11:12:39;;;;;;;5.53;2.22;;;25.30;39.30;;;;;;5043467;28;20027;-64
2021/06/13 11:15:06;;;;;;;5.63;2.00;;;25.30;39.90;;;;;;5044212;28;20056;-64
2021/06/13 11:17:54;;;;;;;5.35;2.00;;;25.30;39.40;;;;;;5046332;28;20037;-64
2021/06/13 11:21:04;;;;;;;5.97;2.10;;;25.30;39.00;;;;;;5047662;28;20037;-64
2021/06/13 11:23:29;;;;;;;3.70;1.92;;;25.30;39.30;;;;;;5047568;28;20030;-64
2021/06/13 11:25:59;;;;;;;3.72;2.15;;;25.30;39.70;;;;;;5047389;28;20351;-64
2021/06/13 11:28:48;;;;;;;3.22;1.80;;;25.50;42.10;;;;;;5047280;28;20367;-64
2021/06/13 11:31:13;;;;;;;4.72;2.10;;;25.60;41.30;;;;;;5036702;28;20029;-64
2021/06/13 11:33:44;;;;;;;5.32;2.55;;;25.70;41.30;;;;;;5047097;28;20111;-64
2021/06/13 11:36:15;;;;;;;5.43;2.03;;;25.80;41.70;;;;;;5047275;28;20264;-65
2021/06/13 11:39:16;;;;;;;4.03;2.35;;;25.80;40.70;;;;;;5046949;28;20041;-64
2021/06/13 11:41:45;;;;;;;4.57;2.38;;;25.60;41.10;;;;;;5046689;28;20033;-64
2021/06/13 11:44:21;;;;;;;5.78;2.35;;;25.50;39.50;;;;;;5046787;28;20034;-64
2021/06/13 11:46:48;;;;;;;5.15;2.40;;;25.70;42.20;;;;;;5046607;28;20068;-64
2021/06/13 11:49:18;;;;;;;4.32;2.30;;;25.80;42.30;;;;;;5046740;28;20040;-64
2021/06/13 11:51:56;;;;;;;5.97;2.33;;;25.80;41.50;;;;;;5046634;28;20037;-64
2021/06/13 11:54:38;;;;;;;4.53;2.20;;;25.90;42.10;;;;;;5046777;28;20284;-64
2021/06/13 11:57:04;;;;;;;6.10;2.60;;;25.90;40.80;;;;;;5046944;28;20036;-64
2021/06/13 11:59:30;;;;;;;4.53;2.50;;;25.80;40.40;;;;;;5047031;28;20037;-64
2021/06/13 12:01:59;;;;;;;5.45;2.35;;;25.80;40.80;;;;;;5046649;28;20037;-64
2021/06/13 12:04:28;;;;;;;4.55;2.00;;;25.80;40.70;;;;;;5046424;28;20041;-64
2021/06/13 12:06:54;;;;;;;5.50;2.10;;;25.90;40.90;;;;;;5046382;28;20079;-64
2021/06/13 12:09:20;;;;;;;7.63;2.42;;;25.80;40.50;;;;;;5047016;28;20030;-64
2021/06/13 12:12:07;;;;;;;5.90;2.05;;;25.60;38.30;;;;;;5046317;28;20037;-64
2021/06/13 12:14:35;;;;;;;4.18;1.90;;;25.90;40.90;;;;;;5046174;28;20340;-64
2021/06/13 12:17:01;;;;;;;6.68;2.50;;;26.00;41.00;;;;;;5046463;28;20033;-64
2021/06/13 12:19:34;;;;;;;4.05;2.10;;;26.00;41.80;;;;;;5046207;28;20068;-64
2021/06/13 12:22:12;;;;;;;4.05;2.13;;;26.10;40.40;;;;;;5046295;28;20076;-64
2021/06/13 12:27:23;;;;;;;4.15;2.42;;;26.00;39.80;;;;;;5012907;28;20060;-64
2021/06/13 12:29:52;;;;;;;5.93;2.17;;;26.00;40.90;;;;;;5045699;28;20254;-64
2021/06/13 12:32:18;;;;;;;5.80;1.90;;;26.00;39.70;;;;;;5046042;28;20092;-64
2021/06/13 12:34:53;;;;;;;3.70;1.70;;;26.10;40.60;;;;;;5045737;28;20072;-64
2021/06/13 12:37:22;;;;;;;6.75;2.00;;;26.10;37.90;;;;;;5045927;28;20344;-64
2021/06/13 12:39:59;;;;;;;5.90;2.03;;;26.00;37.30;;;;;;5045561;28;20087;-64
2021/06/13 12:42:25;;;;;;;2.20;1.60;;;25.90;40.80;;;;;;5045719;28;20022;-64
2021/06/13 12:45:11;;;;;;;4.60;1.50;;;26.00;39.60;;;;;;5045673;28;20027;-64
2021/06/13 12:47:41;;;;;;;5.68;2.08;;;26.10;38.60;;;;;;5045672;28;20033;-64
2021/06/13 12:50:08;;;;;;;4.33;1.50;;;26.10;39.60;;;;;;5028503;28;20029;-64
2021/06/13 12:52:36;;;;;;;5.15;1.90;;;26.00;40.10;;;;;;5045336;28;20033;-64
2021/06/13 12:55:06;;;;;;;3.13;1.38;;;26.00;37.90;;;;;;5045608;28;20033;-64